createdAt,value
2018-03-19T00:02:18.317Z,0.53
2018-03-19T00:04:45.875Z,0.42
2018-03-19T00:07:13.434Z,0.55
2018-03-19T00:09:41.003Z,0.45
2018-03-19T00:12:08.628Z,0.24
2018-03-19T00:14:36.203Z,0.22
2018-03-19T00:17:03.824Z,0.24
2018-03-19T00:19:31.460Z,0.21
2018-03-19T00:21:59.033Z,0.06
2018-03-19T00:24:26.660Z,0.08
2018-03-19T00:26:54.234Z,0.14
2018-03-19T00:29:21.797Z,0.10
2018-03-19T00:31:49.440Z,0.07
2018-03-19T00:34:16.997Z,0.05
2018-03-19T00:36:44.640Z,0.09
2018-03-19T00:39:12.210Z,-0.06
2018-03-19T00:41:39.907Z,-0.08
2018-03-19T00:44:07.471Z,0.04
2018-03-19T00:46:35.034Z,0.07
2018-03-19T00:49:02.672Z,-0.09
2018-03-19T00:51:30.243Z,-0.02
2018-03-19T00:53:57.884Z,-0.10
2018-03-19T00:56:25.454Z,-0.03
2018-03-19T00:58:53.107Z,-0.04
2018-03-19T01:01:20.685Z,0.02
2018-03-19T01:03:48.363Z,-0.02
2018-03-19T01:06:15.928Z,0.04
2018-03-19T01:08:43.490Z,0.07
2018-03-19T01:11:11.059Z,0.03
2018-03-19T01:13:38.645Z,0.01
2018-03-19T01:16:06.217Z,0.13
2018-03-19T01:18:33.779Z,0.11
2018-03-19T01:21:01.342Z,0.13
2018-03-19T01:23:28.966Z,-0.04
2018-03-19T01:25:56.537Z,-0.21
2018-03-19T01:28:24.158Z,-0.22
2018-03-19T01:30:51.797Z,-0.11
2018-03-19T01:33:19.419Z,0.02
2018-03-19T01:35:47.039Z,0.00
2018-03-19T01:38:14.613Z,0.07
2018-03-19T01:40:42.178Z,0.16
2018-03-19T01:43:09.754Z,0.14
2018-03-19T01:45:37.320Z,0.09
2018-03-19T01:48:04.892Z,0.10
2018-03-19T01:50:32.451Z,0.00
2018-03-19T01:53:00.036Z,-0.02
2018-03-19T01:55:27.674Z,0.10
2018-03-19T01:57:55.271Z,0.11
2018-03-19T02:00:22.900Z,0.15
2018-03-19T02:02:50.518Z,0.17
2018-03-19T02:05:18.093Z,0.17
2018-03-19T02:07:45.657Z,0.11
2018-03-19T02:10:13.278Z,0.10
2018-03-19T02:12:40.857Z,-0.02
2018-03-19T02:15:08.424Z,0.03
2018-03-19T02:17:36.001Z,0.04
2018-03-19T02:20:03.659Z,-0.04
2018-03-19T02:22:31.227Z,0.04
2018-03-19T02:24:58.889Z,0.07
2018-03-19T02:27:26.579Z,-0.05
2018-03-19T02:29:54.202Z,0.00
2018-03-19T02:32:21.780Z,-0.25
2018-03-19T02:34:49.360Z,-0.26
2018-03-19T02:37:17.001Z,-0.29
2018-03-19T02:39:44.585Z,-0.17
2018-03-19T02:42:12.150Z,-0.18
2018-03-19T02:44:39.741Z,-0.28
2018-03-19T02:47:07.307Z,-0.21
2018-03-19T02:49:34.967Z,-0.25
2018-03-19T02:52:02.538Z,-0.18
2018-03-19T02:54:30.120Z,-0.17
2018-03-19T02:56:57.696Z,-0.13
2018-03-19T02:59:25.324Z,-0.11
2018-03-19T03:01:52.920Z,-0.13
2018-03-19T03:04:20.493Z,-0.14
2018-03-19T03:06:48.070Z,-0.19
2018-03-19T03:09:15.648Z,-0.19
2018-03-19T03:11:43.281Z,-0.20
2018-03-19T03:14:10.856Z,-0.10
2018-03-19T03:16:38.442Z,-0.03
2018-03-19T03:19:06.019Z,-0.14
2018-03-19T03:21:33.642Z,-0.15
2018-03-19T03:24:01.283Z,-0.20
2018-03-19T03:26:28.854Z,-0.17
2018-03-19T03:28:56.494Z,-0.20
2018-03-19T03:31:24.057Z,-0.18
2018-03-19T03:33:51.710Z,-0.16
2018-03-19T03:36:19.289Z,-0.18
2018-03-19T03:38:46.858Z,-0.17
2018-03-19T03:41:14.433Z,-0.08
2018-03-19T03:43:42.002Z,-0.13
2018-03-19T03:46:09.615Z,-0.19
2018-03-19T03:48:37.220Z,-0.14
2018-03-19T03:51:04.809Z,-0.14
2018-03-19T03:53:32.377Z,-0.22
2018-03-19T03:56:00.003Z,-0.27
2018-03-19T03:58:27.572Z,-0.20
2018-03-19T04:00:55.142Z,-0.20
2018-03-19T04:03:22.776Z,-0.20
2018-03-19T04:05:50.348Z,-0.11
2018-03-19T04:08:17.984Z,-0.11
2018-03-19T04:10:45.551Z,-0.06
2018-03-19T04:13:13.199Z,-0.02
2018-03-19T04:15:40.773Z,-0.01
2018-03-19T04:18:08.390Z,0.04
2018-03-19T04:20:35.971Z,0.10
2018-03-19T04:23:03.604Z,0.06
2018-03-19T04:25:31.174Z,0.15
2018-03-19T04:27:58.795Z,0.10
2018-03-19T04:30:26.432Z,0.14
2018-03-19T04:32:53.997Z,0.16
2018-03-19T04:35:21.648Z,0.10
2018-03-19T04:37:49.231Z,0.08
2018-03-19T04:40:16.865Z,0.14
2018-03-19T04:42:44.444Z,0.15
2018-03-19T04:45:12.010Z,0.16
2018-03-19T04:47:39.582Z,0.07
2018-03-19T04:50:07.148Z,0.11
2018-03-19T04:52:34.728Z,0.10
2018-03-19T04:55:02.311Z,0.13
2018-03-19T04:57:29.879Z,0.20
2018-03-19T04:59:57.440Z,0.18
2018-03-19T05:02:25.051Z,0.14
2018-03-19T05:04:52.674Z,0.02
2018-03-19T05:07:20.238Z,0.04
2018-03-19T05:09:47.818Z,0.08
2018-03-19T05:12:15.384Z,0.10
2018-03-19T05:14:42.972Z,0.10
2018-03-19T05:17:10.608Z,0.11
2018-03-19T05:19:38.242Z,0.10
2018-03-19T05:22:05.809Z,0.18
2018-03-19T05:24:33.451Z,0.23
2018-03-19T05:27:01.020Z,0.33
2018-03-19T05:29:28.591Z,0.49
2018-03-19T05:31:56.206Z,0.72
2018-03-19T05:34:23.844Z,0.88
2018-03-19T05:36:51.480Z,0.85
2018-03-19T05:39:19.110Z,0.87
2018-03-19T05:41:46.680Z,0.92
2018-03-19T05:44:14.247Z,0.93
2018-03-19T05:46:41.873Z,0.96
2018-03-19T05:49:09.456Z,0.99
2018-03-19T05:51:37.089Z,1.00
2018-03-19T05:54:04.673Z,0.87
2018-03-19T05:56:32.238Z,0.90
2018-03-19T05:58:59.923Z,0.87
2018-03-19T06:01:27.492Z,0.81
2018-03-19T06:03:55.061Z,0.71
2018-03-19T06:06:23.026Z,0.74
2018-03-19T06:08:50.808Z,0.78
2018-03-19T06:11:18.370Z,0.69
2018-03-19T06:13:45.987Z,0.55
2018-03-19T06:16:13.562Z,0.44
2018-03-19T06:18:41.133Z,0.51
2018-03-19T06:21:08.702Z,0.31
2018-03-19T06:23:36.284Z,0.19
2018-03-19T06:26:03.899Z,0.30
2018-03-19T06:28:31.476Z,0.22
2018-03-19T06:30:59.103Z,0.09
2018-03-19T06:33:26.738Z,0.01
2018-03-19T06:35:54.342Z,0.08
2018-03-19T06:38:22.011Z,0.20
2018-03-19T06:40:49.574Z,0.18
2018-03-19T06:43:17.148Z,0.09
2018-03-19T06:45:44.791Z,-0.02
2018-03-19T06:48:12.450Z,-0.07
2018-03-19T06:50:40.028Z,-0.09
2018-03-19T06:53:07.589Z,-0.03
2018-03-19T06:55:35.299Z,0.03
2018-03-19T06:58:02.953Z,0.09
2018-03-19T07:00:30.520Z,0.13
2018-03-19T07:02:58.090Z,0.14
2018-03-19T07:05:25.655Z,0.07
2018-03-19T07:07:53.291Z,0.14
2018-03-19T07:10:22.584Z,0.17
2018-03-19T07:12:50.264Z,0.24
2018-03-19T07:15:17.823Z,0.34
2018-03-19T07:17:45.443Z,0.32
2018-03-19T07:20:13.018Z,0.25
2018-03-19T07:22:40.645Z,0.38
2018-03-19T07:25:08.275Z,0.39
2018-03-19T07:27:35.894Z,0.46
2018-03-19T07:30:03.480Z,0.54
2018-03-19T07:32:31.038Z,0.51
2018-03-19T07:34:58.598Z,0.52
2018-03-19T07:37:26.189Z,0.63
2018-03-19T07:39:53.759Z,0.56
2018-03-19T07:42:21.326Z,0.65
2018-03-19T07:44:48.887Z,0.70
2018-03-19T07:47:16.579Z,0.72
2018-03-19T07:49:44.230Z,0.88
2018-03-19T07:52:11.872Z,0.95
2018-03-19T07:54:39.446Z,1.03
2018-03-19T07:57:07.007Z,1.09
2018-03-19T07:59:34.578Z,1.09
2018-03-19T08:02:02.220Z,1.10
2018-03-19T08:04:29.804Z,1.07
2018-03-19T08:06:57.422Z,1.13
2018-03-19T08:09:25.071Z,1.12
2018-03-19T08:11:52.648Z,1.11
2018-03-19T08:14:20.215Z,1.12
2018-03-19T08:16:47.843Z,1.15
2018-03-19T08:19:15.402Z,1.22
2018-03-19T08:21:43.018Z,1.19
2018-03-19T08:24:10.639Z,1.18
2018-03-19T08:26:38.267Z,1.23
2018-03-19T08:29:05.838Z,1.30
2018-03-19T08:31:33.406Z,1.28
2018-03-19T08:34:00.996Z,1.30
2018-03-19T08:36:28.616Z,1.27
2018-03-19T08:38:56.246Z,1.27
2018-03-19T08:41:23.879Z,1.31
2018-03-19T08:43:51.540Z,1.29
2018-03-19T08:46:19.179Z,1.40
2018-03-19T08:48:46.784Z,1.46
2018-03-19T08:51:14.418Z,1.37
2018-03-19T08:53:41.982Z,1.25
2018-03-19T08:56:09.607Z,1.33
2018-03-19T08:58:37.216Z,1.31
2018-03-19T09:01:04.772Z,1.29
2018-03-19T09:03:32.402Z,1.43
2018-03-19T09:05:59.973Z,1.38
2018-03-19T09:08:27.660Z,1.53
2018-03-19T09:10:55.279Z,1.47
2018-03-19T09:13:22.842Z,1.55
2018-03-19T09:15:50.470Z,1.53
2018-03-19T09:18:18.047Z,1.60
2018-03-19T09:20:45.617Z,1.66
2018-03-19T09:23:13.189Z,1.86
2018-03-19T09:25:40.861Z,1.82
2018-03-19T09:28:08.439Z,1.92
2018-03-19T09:30:36.054Z,2.03
2018-03-19T09:33:03.673Z,2.05
2018-03-19T09:35:31.230Z,2.09
2018-03-19T09:37:58.876Z,2.15
2018-03-19T09:40:26.448Z,2.24
2018-03-19T09:42:54.015Z,2.27
2018-03-19T09:45:21.590Z,2.39
2018-03-19T09:47:49.158Z,2.18
2018-03-19T09:50:16.731Z,2.43
2018-03-19T09:52:44.292Z,2.42
2018-03-19T09:55:11.985Z,2.42
2018-03-19T09:57:39.550Z,2.50
2018-03-19T10:00:07.175Z,2.57
2018-03-19T10:02:34.807Z,2.47
2018-03-19T10:05:02.369Z,2.75
2018-03-19T10:07:29.981Z,2.70
2018-03-19T10:09:57.558Z,2.73
2018-03-19T10:12:25.246Z,2.73
2018-03-19T10:14:52.868Z,2.72
2018-03-19T10:17:20.434Z,2.76
2018-03-19T10:19:48.003Z,2.81
2018-03-19T10:22:15.627Z,3.12
2018-03-19T10:24:43.226Z,2.98
2018-03-19T10:27:10.796Z,2.74
2018-03-19T10:29:38.430Z,2.79
2018-03-19T10:32:06.068Z,2.73
2018-03-19T10:34:33.648Z,2.84
2018-03-19T10:37:01.283Z,2.91
2018-03-19T10:39:28.839Z,2.75
2018-03-19T10:41:56.415Z,2.54
2018-03-19T10:44:23.974Z,2.73
2018-03-19T10:46:51.541Z,2.65
2018-03-19T10:49:19.107Z,2.73
2018-03-19T10:51:46.724Z,2.77
2018-03-19T10:54:14.293Z,2.87
2018-03-19T10:56:41.861Z,3.18
2018-03-19T10:59:09.431Z,3.25
2018-03-19T11:01:42.521Z,3.26
2018-03-19T11:04:14.462Z,3.48
2018-03-19T11:06:47.563Z,3.40
2018-03-19T11:09:20.623Z,3.48
2018-03-19T11:15:46.311Z,3.16
2018-03-19T11:18:13.923Z,3.04
2018-03-19T11:20:41.572Z,3.09
2018-03-19T11:23:09.198Z,3.05
2018-03-19T11:25:36.880Z,3.24
2018-03-19T11:28:04.450Z,3.24
2018-03-19T11:30:32.014Z,3.31
2018-03-19T11:32:59.597Z,3.61
2018-03-19T11:35:27.166Z,3.86
2018-03-19T11:37:55.300Z,3.70
2018-03-19T11:40:22.881Z,3.61
2018-03-19T11:42:50.514Z,3.53
2018-03-19T11:45:18.105Z,3.53
2018-03-19T11:47:46.311Z,3.53
2018-03-19T11:50:14.746Z,3.59
2018-03-19T11:52:43.896Z,3.51
2018-03-19T11:55:11.486Z,3.39
2018-03-19T11:57:41.774Z,3.57
2018-03-19T12:00:10.217Z,3.70
2018-03-19T12:02:37.796Z,3.70
2018-03-19T12:05:05.386Z,3.87
2018-03-19T12:07:32.962Z,3.98
2018-03-19T12:10:00.546Z,4.17
2018-03-19T12:15:17.420Z,4.30
2018-03-19T12:17:45.055Z,4.11
2018-03-19T12:20:13.056Z,4.10
2018-03-19T12:22:40.702Z,4.02
2018-03-19T12:25:08.270Z,3.97
2018-03-19T12:27:35.860Z,4.11
2018-03-19T12:30:04.122Z,4.23
2018-03-19T12:32:31.698Z,4.21
2018-03-19T12:34:59.270Z,4.04
2018-03-19T12:37:26.843Z,3.93
2018-03-19T12:39:54.414Z,3.87
2018-03-19T12:42:22.988Z,3.80
2018-03-19T12:44:52.662Z,3.76
2018-03-19T12:47:20.259Z,3.64
2018-03-19T12:49:48.768Z,3.62
2018-03-19T12:52:16.342Z,3.74
2018-03-19T12:54:43.927Z,4.02
2018-03-19T12:57:11.534Z,4.16
2018-03-19T12:59:39.690Z,4.16
2018-03-19T13:02:09.240Z,4.17
2018-03-19T13:04:39.488Z,4.25
2018-03-19T13:07:07.100Z,4.21
2018-03-19T13:09:34.660Z,4.17
2018-03-19T13:12:02.808Z,4.12
2018-03-19T13:14:30.384Z,3.78
2018-03-19T13:16:57.947Z,3.79
2018-03-19T13:19:26.350Z,3.61
2018-03-19T13:21:54.009Z,3.69
2018-03-19T13:24:21.615Z,3.70
2018-03-19T13:26:49.177Z,3.80
2018-03-19T13:29:16.738Z,3.84
2018-03-19T13:31:44.363Z,3.88
2018-03-19T13:34:11.913Z,3.99
2018-03-19T13:36:39.482Z,3.90
2018-03-19T13:39:07.046Z,3.93
2018-03-19T13:41:34.651Z,3.87
2018-03-19T13:44:02.220Z,3.88
2018-03-19T13:46:29.814Z,3.85
2018-03-19T13:48:57.386Z,3.89
2018-03-19T13:51:24.956Z,3.98
2018-03-19T13:53:52.530Z,4.09
2018-03-19T13:56:20.094Z,4.18
2018-03-19T13:58:48.617Z,4.13
2018-03-19T14:01:16.220Z,4.16
2018-03-19T14:03:43.846Z,4.05
2018-03-19T14:06:11.412Z,4.06
2018-03-19T14:08:38.979Z,4.09
2018-03-19T14:11:06.551Z,4.11
2018-03-19T14:13:34.831Z,4.07
2018-03-19T14:16:02.399Z,4.00
2018-03-19T14:18:31.152Z,4.05
2018-03-19T14:20:58.734Z,4.00
2018-03-19T14:23:26.299Z,4.08
2018-03-19T14:25:53.898Z,3.98
2018-03-19T14:28:21.463Z,3.98
2018-03-19T14:30:49.035Z,3.95
2018-03-19T14:33:16.605Z,3.94
2018-03-19T14:35:44.173Z,3.96
2018-03-19T14:38:11.758Z,3.99
2018-03-19T14:40:39.322Z,4.04
2018-03-19T14:43:06.895Z,3.97
2018-03-19T14:45:34.471Z,4.08
2018-03-19T14:48:02.110Z,4.06
2018-03-19T14:50:29.773Z,4.10
2018-03-19T14:52:57.292Z,4.06
2018-03-19T14:55:24.862Z,4.05
2018-03-19T14:57:52.423Z,4.05
2018-03-19T15:00:20.018Z,4.08
2018-03-19T15:02:47.604Z,4.03
2018-03-19T15:05:15.174Z,3.96
2018-03-19T15:07:42.738Z,3.84
2018-03-19T15:10:10.341Z,3.76
2018-03-19T15:12:37.995Z,3.71
2018-03-19T15:15:05.557Z,3.56
2018-03-19T15:17:33.205Z,3.54
2018-03-19T15:20:00.768Z,3.61
2018-03-19T15:22:28.348Z,3.59
2018-03-19T15:24:55.911Z,3.52
2018-03-19T15:27:23.477Z,3.46
2018-03-19T15:29:51.049Z,3.40
2018-03-19T15:32:18.650Z,3.32
2018-03-19T15:34:46.222Z,3.29
2018-03-19T15:37:13.789Z,3.23
2018-03-19T15:39:41.442Z,3.23
2018-03-19T15:42:09.003Z,3.36
2018-03-19T15:44:36.578Z,3.31
2018-03-19T15:47:04.142Z,3.28
2018-03-19T15:49:31.710Z,3.26
2018-03-19T15:51:59.307Z,3.20
2018-03-19T15:54:26.922Z,3.21
2018-03-19T15:56:54.494Z,3.08
2018-03-19T15:59:22.073Z,3.03
2018-03-19T16:01:49.646Z,2.90
2018-03-19T16:04:17.223Z,2.92
2018-03-19T16:06:44.796Z,2.88
2018-03-19T16:09:12.357Z,2.90
2018-03-19T16:11:39.963Z,2.89
2018-03-19T16:14:07.543Z,2.90
2018-03-19T16:16:35.152Z,2.91
2018-03-19T16:19:02.727Z,2.87
2018-03-19T16:21:30.317Z,2.84
2018-03-19T16:23:57.897Z,2.87
2018-03-19T16:26:25.506Z,2.88
2018-03-19T16:28:53.089Z,2.88
2018-03-19T16:31:20.690Z,2.84
2018-03-19T16:33:48.265Z,2.76
2018-03-19T16:36:15.836Z,2.67
2018-03-19T16:38:43.452Z,2.74
2018-03-19T16:41:11.023Z,2.71
2018-03-19T16:43:38.581Z,2.68
2018-03-19T16:46:06.167Z,2.64
2018-03-19T16:48:33.729Z,2.64
2018-03-19T16:51:01.294Z,2.52
2018-03-19T16:53:28.858Z,2.62
2018-03-19T16:55:56.471Z,2.70
2018-03-19T16:58:24.052Z,2.73
2018-03-19T17:00:51.619Z,2.68
2018-03-19T17:03:19.188Z,2.68
2018-03-19T17:05:46.770Z,2.65
2018-03-19T17:08:14.346Z,2.71
2018-03-19T17:10:41.919Z,2.75
2018-03-19T17:13:09.528Z,2.72
2018-03-19T17:15:37.088Z,2.74
2018-03-19T17:18:04.664Z,2.73
2018-03-19T17:20:32.247Z,2.76
2018-03-19T17:22:59.814Z,2.73
2018-03-19T17:25:27.390Z,2.69
2018-03-19T17:27:54.964Z,2.69
2018-03-19T17:30:22.644Z,2.70
2018-03-19T17:32:50.199Z,2.66
2018-03-19T17:35:17.759Z,2.71
2018-03-19T17:37:45.329Z,2.69
2018-03-19T17:40:12.913Z,2.70
2018-03-19T17:42:40.496Z,2.77
2018-03-19T17:45:08.058Z,2.82
2018-03-19T17:47:35.639Z,2.82
2018-03-19T17:50:03.225Z,2.79
2018-03-19T17:52:31.719Z,2.74
2018-03-19T17:54:59.360Z,2.74
2018-03-19T17:57:26.991Z,2.80
2018-03-19T17:59:54.565Z,2.86
2018-03-19T18:02:22.210Z,2.84
2018-03-19T18:04:49.842Z,2.80
2018-03-19T18:07:17.402Z,2.80
2018-03-19T18:09:44.974Z,2.83
2018-03-19T18:12:12.546Z,2.85
2018-03-19T18:14:40.190Z,2.89
2018-03-19T18:17:07.778Z,2.89
2018-03-19T18:19:35.343Z,2.95
2018-03-19T18:22:02.959Z,2.89
2018-03-19T18:24:30.534Z,2.73
2018-03-19T18:26:58.110Z,2.70
2018-03-19T18:29:25.750Z,2.63
2018-03-19T18:31:53.344Z,2.66
2018-03-19T18:34:20.904Z,2.55
2018-03-19T18:36:48.584Z,2.58
2018-03-19T18:39:16.210Z,2.59
2018-03-19T18:41:43.835Z,2.63
2018-03-19T18:44:11.456Z,2.56
2018-03-19T18:46:39.080Z,2.53
2018-03-19T18:49:06.665Z,2.47
2018-03-19T18:51:34.733Z,2.46
2018-03-19T18:54:02.443Z,2.44
2018-03-19T18:56:30.077Z,2.50
2018-03-19T18:58:57.643Z,2.50
2018-03-19T19:01:25.231Z,2.53
2018-03-19T19:03:52.890Z,2.57
2018-03-19T19:06:20.526Z,2.65
2018-03-19T19:08:48.213Z,2.68
2018-03-19T19:11:15.844Z,2.65
2018-03-19T19:13:43.422Z,2.69
2018-03-19T19:16:10.995Z,2.66
2018-03-19T19:18:38.570Z,2.62
2018-03-19T19:21:06.130Z,2.58
2018-03-19T19:23:33.707Z,2.60
2018-03-19T19:26:01.274Z,2.56
2018-03-19T19:28:28.864Z,2.49
2018-03-19T19:30:56.487Z,2.39
2018-03-19T19:33:24.061Z,2.41
2018-03-19T19:35:51.776Z,2.31
2018-03-19T19:38:19.399Z,2.35
2018-03-19T19:40:46.966Z,2.23
2018-03-19T19:43:14.527Z,2.18
2018-03-19T19:45:42.106Z,2.20
2018-03-19T19:48:09.736Z,2.15
2018-03-19T19:50:37.312Z,2.12
2018-03-19T19:53:04.892Z,2.17
2018-03-19T19:55:32.463Z,2.03
2018-03-19T19:58:00.036Z,1.93
2018-03-19T20:00:27.681Z,1.91
2018-03-19T20:02:55.313Z,1.80
2018-03-19T20:05:22.925Z,1.71
2018-03-19T20:07:50.559Z,1.74
2018-03-19T20:10:18.168Z,1.72
2018-03-19T20:12:45.745Z,1.73
2018-03-19T20:15:13.336Z,1.75
2018-03-19T20:17:40.914Z,1.77
2018-03-19T20:20:08.480Z,1.75
2018-03-19T20:22:36.059Z,1.72
2018-03-19T20:25:03.628Z,1.71
2018-03-19T20:27:31.375Z,1.69
2018-03-19T20:29:58.919Z,1.72
2018-03-19T20:32:26.479Z,1.72
2018-03-19T20:34:54.051Z,1.72
2018-03-19T20:37:21.634Z,1.67
2018-03-19T20:39:49.218Z,1.66
2018-03-19T20:42:16.780Z,1.61
2018-03-19T20:44:44.360Z,1.58
2018-03-19T20:47:12.034Z,1.55
2018-03-19T20:49:39.676Z,1.60
2018-03-19T20:52:07.245Z,1.67
2018-03-19T20:54:34.834Z,1.59
2018-03-19T20:57:02.403Z,1.52
2018-03-19T20:59:30.043Z,1.54
2018-03-19T21:01:57.626Z,1.52
2018-03-19T21:04:25.196Z,1.54
2018-03-19T21:06:52.765Z,1.53
2018-03-19T21:09:22.305Z,1.46
2018-03-19T21:11:49.878Z,1.48
2018-03-19T21:14:17.446Z,1.47
2018-03-19T21:16:45.150Z,1.45
2018-03-19T21:19:12.776Z,1.55
2018-03-19T21:21:40.403Z,1.48
2018-03-19T21:24:08.032Z,1.46
2018-03-19T21:26:35.607Z,1.49
2018-03-19T21:29:03.195Z,1.46
2018-03-19T21:31:30.831Z,1.47
2018-03-19T21:33:58.451Z,1.52
2018-03-19T21:36:26.079Z,1.48
2018-03-19T21:38:53.643Z,1.32
2018-03-19T21:41:21.223Z,1.37
2018-03-19T21:43:48.843Z,1.38
2018-03-19T21:46:16.420Z,1.28
2018-03-19T21:48:44.042Z,1.18
2018-03-19T21:51:11.663Z,1.10
2018-03-19T21:53:39.259Z,1.15
2018-03-19T21:56:06.822Z,1.05
2018-03-19T21:58:34.433Z,1.03
2018-03-19T22:01:02.002Z,1.10
2018-03-19T22:03:29.637Z,1.09
2018-03-19T22:05:57.269Z,1.03
2018-03-19T22:08:24.887Z,1.07
2018-03-19T22:10:52.462Z,1.06
2018-03-19T22:13:20.092Z,1.10
2018-03-19T22:15:47.666Z,1.12
2018-03-19T22:18:15.235Z,1.00
2018-03-19T22:20:42.818Z,1.03
2018-03-19T22:23:10.442Z,1.06
2018-03-19T22:25:38.024Z,1.03
2018-03-19T22:28:05.656Z,0.97
2018-03-19T22:30:33.338Z,0.98
2018-03-19T22:33:00.960Z,1.00
2018-03-19T22:35:28.529Z,0.97
2018-03-19T22:37:56.163Z,1.05
2018-03-19T22:40:23.736Z,0.96
2018-03-19T22:42:51.331Z,1.05
2018-03-19T22:45:18.899Z,1.08
2018-03-19T22:47:46.586Z,1.08
2018-03-19T22:50:14.150Z,1.11
2018-03-19T22:52:41.766Z,1.21
2018-03-19T22:55:09.332Z,1.20
2018-03-19T22:57:36.895Z,1.20
2018-03-19T23:00:04.551Z,1.28
2018-03-19T23:02:32.171Z,1.20
2018-03-19T23:08:01.565Z,1.20
2018-03-19T23:10:29.191Z,1.21
2018-03-19T23:12:56.810Z,1.20
2018-03-19T23:15:24.382Z,1.29
2018-03-19T23:17:52.030Z,1.35
2018-03-19T23:20:19.609Z,1.44
2018-03-19T23:22:47.249Z,1.42
2018-03-19T23:25:14.836Z,1.51
2018-03-19T23:27:42.454Z,1.46
2018-03-19T23:30:10.052Z,1.52
2018-03-19T23:32:37.619Z,1.52
2018-03-19T23:35:05.236Z,1.46
2018-03-19T23:37:32.806Z,1.47
2018-03-19T23:40:00.394Z,1.44
2018-03-19T23:42:27.954Z,1.42
2018-03-19T23:44:55.526Z,1.32
2018-03-19T23:47:23.109Z,1.28
2018-03-19T23:49:50.753Z,1.29
2018-03-19T23:52:18.319Z,1.28
2018-03-19T23:54:45.878Z,1.23
2018-03-19T23:57:13.448Z,1.16
2018-03-19T23:59:41.032Z,1.17
